sensor_id;sensor_type;location;lat;lon;timestamp;temperature;humidity
61912;DHT22;49973;52.084;5.412;2024-01-11T00:00:51;-4.10;99.90
61912;DHT22;49973;52.084;5.412;2024-01-11T00:03:19;-4.10;99.90
61912;DHT22;49973;52.084;5.412;2024-01-11T00:05:49;-4.20;99.90
61912;DHT22;49973;52.084;5.412;2024-01-11T00:08:18;-4.20;99.90
61912;DHT22;49973;52.084;5.412;2024-01-11T00:10:47;-4.20;99.90
61912;DHT22;49973;52.084;5.412;2024-01-11T00:13:16;-4.20;99.90
61912;DHT22;49973;52.084;5.412;2024-01-11T00:15:44;-4.20;99.90
61912;DHT22;49973;52.084;5.412;2024-01-11T00:18:13;-4.20;99.90
61912;DHT22;49973;52.084;5.412;2024-01-11T00:20:42;-4.30;99.90
61912;DHT22;49973;52.084;5.412;2024-01-11T00:23:12;-4.30;99.90
61912;DHT22;49973;52.084;5.412;2024-01-11T00:25:41;-4.30;99.90
61912;DHT22;49973;52.084;5.412;2024-01-11T00:28:09;-4.30;99.90
61912;DHT22;49973;52.084;5.412;2024-01-11T00:30:38;-4.30;99.90
61912;DHT22;49973;52.084;5.412;2024-01-11T00:33:07;-4.30;99.90
61912;DHT22;49973;52.084;5.412;2024-01-11T00:35:36;-4.40;99.90
61912;DHT22;49973;52.084;5.412;2024-01-11T00:38:05;-4.40;99.90
61912;DHT22;49973;52.084;5.412;2024-01-11T00:40:35;-4.40;99.90
61912;DHT22;49973;52.084;5.412;2024-01-11T00:43:04;-4.40;99.90
61912;DHT22;49973;52.084;5.412;2024-01-11T00:45:33;-4.40;99.90
61912;DHT22;49973;52.084;5.412;2024-01-11T00:48:03;-4.40;99.90
61912;DHT22;49973;52.084;5.412;2024-01-11T00:50:32;-4.40;99.90
61912;DHT22;49973;52.084;5.412;2024-01-11T00:53:01;-4.40;99.90
61912;DHT22;49973;52.084;5.412;2024-01-11T00:55:30;-4.40;99.90
61912;DHT22;49973;52.084;5.412;2024-01-11T00:58:00;-4.50;99.90
61912;DHT22;49973;52.084;5.412;2024-01-11T01:00:28;-4.50;99.90
61912;DHT22;49973;52.084;5.412;2024-01-11T01:02:57;-4.50;99.90
61912;DHT22;49973;52.084;5.412;2024-01-11T01:05:26;-4.50;99.90
61912;DHT22;49973;52.084;5.412;2024-01-11T01:07:54;-4.50;99.90
61912;DHT22;49973;52.084;5.412;2024-01-11T01:10:23;-4.60;99.90
61912;DHT22;49973;52.084;5.412;2024-01-11T01:12:52;-4.60;99.90
61912;DHT22;49973;52.084;5.412;2024-01-11T01:15:22;-4.60;99.90
61912;DHT22;49973;52.084;5.412;2024-01-11T01:17:51;-4.60;99.90
61912;DHT22;49973;52.084;5.412;2024-01-11T01:20:20;-4.60;99.90
61912;DHT22;49973;52.084;5.412;2024-01-11T01:22:49;-4.70;99.90
61912;DHT22;49973;52.084;5.412;2024-01-11T01:25:18;-4.70;99.90
61912;DHT22;49973;52.084;5.412;2024-01-11T01:27:47;-4.70;99.90
61912;DHT22;49973;52.084;5.412;2024-01-11T01:30:15;-4.70;99.90
61912;DHT22;49973;52.084;5.412;2024-01-11T01:32:46;-4.70;99.90
61912;DHT22;49973;52.084;5.412;2024-01-11T01:35:15;-4.70;99.90
61912;DHT22;49973;52.084;5.412;2024-01-11T01:37:43;-4.80;99.90
61912;DHT22;49973;52.084;5.412;2024-01-11T01:40:12;-4.80;99.90
61912;DHT22;49973;52.084;5.412;2024-01-11T01:42:42;-4.80;99.90
61912;DHT22;49973;52.084;5.412;2024-01-11T01:45:11;-4.80;99.90
61912;DHT22;49973;52.084;5.412;2024-01-11T01:47:41;-4.80;99.90
61912;DHT22;49973;52.084;5.412;2024-01-11T01:50:12;-4.80;99.90
61912;DHT22;49973;52.084;5.412;2024-01-11T01:52:42;-4.80;99.90
61912;DHT22;49973;52.084;5.412;2024-01-11T01:55:12;-4.80;99.90
61912;DHT22;49973;52.084;5.412;2024-01-11T01:57:44;-4.90;99.90
61912;DHT22;49973;52.084;5.412;2024-01-11T02:00:13;-4.90;99.90
61912;DHT22;49973;52.084;5.412;2024-01-11T02:02:43;-4.90;99.90
61912;DHT22;49973;52.084;5.412;2024-01-11T02:05:14;-4.90;99.90
61912;DHT22;49973;52.084;5.412;2024-01-11T02:07:45;-4.90;99.90
61912;DHT22;49973;52.084;5.412;2024-01-11T02:10:13;-4.90;99.90
61912;DHT22;49973;52.084;5.412;2024-01-11T02:12:42;-5.00;99.90
61912;DHT22;49973;52.084;5.412;2024-01-11T02:15:11;-4.90;99.90
61912;DHT22;49973;52.084;5.412;2024-01-11T02:17:40;-5.00;99.90
61912;DHT22;49973;52.084;5.412;2024-01-11T02:20:10;-5.00;99.90
61912;DHT22;49973;52.084;5.412;2024-01-11T02:22:44;-5.00;99.90
61912;DHT22;49973;52.084;5.412;2024-01-11T02:25:16;-5.00;99.90
61912;DHT22;49973;52.084;5.412;2024-01-11T02:27:46;-5.00;99.90
61912;DHT22;49973;52.084;5.412;2024-01-11T02:30:16;-5.10;99.90
61912;DHT22;49973;52.084;5.412;2024-01-11T02:32:46;-5.00;99.90
61912;DHT22;49973;52.084;5.412;2024-01-11T02:35:16;-5.00;99.90
61912;DHT22;49973;52.084;5.412;2024-01-11T02:37:46;-5.10;99.90
61912;DHT22;49973;52.084;5.412;2024-01-11T02:40:19;-5.10;99.90
61912;DHT22;49973;52.084;5.412;2024-01-11T02:42:48;-5.10;99.90
61912;DHT22;49973;52.084;5.412;2024-01-11T02:45:16;-5.10;99.90
61912;DHT22;49973;52.084;5.412;2024-01-11T02:47:46;-5.10;99.90
61912;DHT22;49973;52.084;5.412;2024-01-11T02:50:15;-5.10;99.90
61912;DHT22;49973;52.084;5.412;2024-01-11T02:52:43;-5.10;99.90
61912;DHT22;49973;52.084;5.412;2024-01-11T02:55:12;-5.10;99.90
61912;DHT22;49973;52.084;5.412;2024-01-11T02:57:43;-5.20;99.90
61912;DHT22;49973;52.084;5.412;2024-01-11T03:00:12;-5.20;99.90
61912;DHT22;49973;52.084;5.412;2024-01-11T03:02:41;-5.20;99.90
61912;DHT22;49973;52.084;5.412;2024-01-11T03:05:10;-5.20;99.90
61912;DHT22;49973;52.084;5.412;2024-01-11T03:07:39;-5.30;99.90
61912;DHT22;49973;52.084;5.412;2024-01-11T03:10:07;-5.20;99.90
61912;DHT22;49973;52.084;5.412;2024-01-11T03:12:36;-5.30;99.90
61912;DHT22;49973;52.084;5.412;2024-01-11T03:15:07;-5.30;99.90
61912;DHT22;49973;52.084;5.412;2024-01-11T03:17:35;-5.30;99.90
61912;DHT22;49973;52.084;5.412;2024-01-11T03:20:05;-5.40;99.90
61912;DHT22;49973;52.084;5.412;2024-01-11T03:22:34;-5.40;99.90
61912;DHT22;49973;52.084;5.412;2024-01-11T03:25:04;-5.40;99.90
61912;DHT22;49973;52.084;5.412;2024-01-11T03:27:32;-5.40;99.90
61912;DHT22;49973;52.084;5.412;2024-01-11T03:30:01;-5.40;99.90
61912;DHT22;49973;52.084;5.412;2024-01-11T03:32:31;-5.40;99.90
61912;DHT22;49973;52.084;5.412;2024-01-11T03:35:00;-5.40;99.90
61912;DHT22;49973;52.084;5.412;2024-01-11T03:37:29;-5.40;99.90
61912;DHT22;49973;52.084;5.412;2024-01-11T03:39:57;-5.40;99.90
61912;DHT22;49973;52.084;5.412;2024-01-11T03:42:26;-5.40;99.90
61912;DHT22;49973;52.084;5.412;2024-01-11T03:44:55;-5.40;99.90
61912;DHT22;49973;52.084;5.412;2024-01-11T03:47:23;-5.40;99.90
61912;DHT22;49973;52.084;5.412;2024-01-11T03:49:53;-5.40;99.90
61912;DHT22;49973;52.084;5.412;2024-01-11T03:52:22;-5.40;99.90
61912;DHT22;49973;52.084;5.412;2024-01-11T03:54:51;-5.40;99.90
61912;DHT22;49973;52.084;5.412;2024-01-11T03:57:19;-5.30;99.90
61912;DHT22;49973;52.084;5.412;2024-01-11T03:59:48;-5.50;99.90
61912;DHT22;49973;52.084;5.412;2024-01-11T04:02:17;-5.50;99.90
61912;DHT22;49973;52.084;5.412;2024-01-11T04:04:45;-5.50;99.90
61912;DHT22;49973;52.084;5.412;2024-01-11T04:07:15;-5.50;99.90
61912;DHT22;49973;52.084;5.412;2024-01-11T04:09:44;-5.30;99.90
61912;DHT22;49973;52.084;5.412;2024-01-11T04:12:13;-5.50;99.90
61912;DHT22;49973;52.084;5.412;2024-01-11T04:14:41;-5.50;99.90
61912;DHT22;49973;52.084;5.412;2024-01-11T04:17:10;-5.40;99.90
61912;DHT22;49973;52.084;5.412;2024-01-11T04:19:39;-5.40;99.90
61912;DHT22;49973;52.084;5.412;2024-01-11T04:22:08;-5.40;99.90
61912;DHT22;49973;52.084;5.412;2024-01-11T04:24:38;-5.40;99.90
61912;DHT22;49973;52.084;5.412;2024-01-11T04:27:06;-5.40;99.90
61912;DHT22;49973;52.084;5.412;2024-01-11T04:29:35;-5.30;99.90
61912;DHT22;49973;52.084;5.412;2024-01-11T04:32:04;-5.30;99.90
61912;DHT22;49973;52.084;5.412;2024-01-11T04:34:33;-5.30;99.90
61912;DHT22;49973;52.084;5.412;2024-01-11T04:37:02;-5.30;99.90
61912;DHT22;49973;52.084;5.412;2024-01-11T04:39:31;-5.30;99.90
61912;DHT22;49973;52.084;5.412;2024-01-11T04:42:01;-5.30;99.90
61912;DHT22;49973;52.084;5.412;2024-01-11T04:44:30;-5.20;99.90
61912;DHT22;49973;52.084;5.412;2024-01-11T04:46:59;-5.30;99.90
61912;DHT22;49973;52.084;5.412;2024-01-11T04:49:28;-5.20;99.90
61912;DHT22;49973;52.084;5.412;2024-01-11T04:51:56;-5.20;99.90
61912;DHT22;49973;52.084;5.412;2024-01-11T04:54:25;-5.30;99.90
61912;DHT22;49973;52.084;5.412;2024-01-11T04:56:54;-5.30;99.90
61912;DHT22;49973;52.084;5.412;2024-01-11T04:59:24;-5.30;99.90
61912;DHT22;49973;52.084;5.412;2024-01-11T05:01:52;-5.30;99.90
61912;DHT22;49973;52.084;5.412;2024-01-11T05:04:21;-5.30;99.90
61912;DHT22;49973;52.084;5.412;2024-01-11T05:06:51;-5.30;99.90
61912;DHT22;49973;52.084;5.412;2024-01-11T05:09:20;-5.30;99.90
61912;DHT22;49973;52.084;5.412;2024-01-11T05:11:48;-5.30;99.90
61912;DHT22;49973;52.084;5.412;2024-01-11T05:14:17;-5.30;99.90
61912;DHT22;49973;52.084;5.412;2024-01-11T05:16:47;-5.30;99.90
61912;DHT22;49973;52.084;5.412;2024-01-11T05:19:16;-5.30;99.90
61912;DHT22;49973;52.084;5.412;2024-01-11T05:21:45;-5.30;99.90
61912;DHT22;49973;52.084;5.412;2024-01-11T05:24:13;-5.40;99.90
61912;DHT22;49973;52.084;5.412;2024-01-11T05:26:42;-5.40;99.90
61912;DHT22;49973;52.084;5.412;2024-01-11T05:29:10;-5.40;99.90
61912;DHT22;49973;52.084;5.412;2024-01-11T05:31:39;-5.40;99.90
61912;DHT22;49973;52.084;5.412;2024-01-11T05:34:09;-5.40;99.90
61912;DHT22;49973;52.084;5.412;2024-01-11T05:36:40;-5.40;99.90
61912;DHT22;49973;52.084;5.412;2024-01-11T05:39:09;-5.40;99.90
61912;DHT22;49973;52.084;5.412;2024-01-11T05:41:37;-5.40;99.90
61912;DHT22;49973;52.084;5.412;2024-01-11T05:44:06;-5.40;99.90
61912;DHT22;49973;52.084;5.412;2024-01-11T05:46:35;-5.40;99.90
61912;DHT22;49973;52.084;5.412;2024-01-11T05:49:03;-5.50;99.90
61912;DHT22;49973;52.084;5.412;2024-01-11T05:51:33;-5.50;99.90
61912;DHT22;49973;52.084;5.412;2024-01-11T05:54:02;-5.50;99.90
61912;DHT22;49973;52.084;5.412;2024-01-11T05:56:31;-5.50;99.90
61912;DHT22;49973;52.084;5.412;2024-01-11T05:59:00;-5.50;99.90
61912;DHT22;49973;52.084;5.412;2024-01-11T06:01:28;-5.50;99.90
61912;DHT22;49973;52.084;5.412;2024-01-11T06:03:57;-5.50;99.90
61912;DHT22;49973;52.084;5.412;2024-01-11T06:06:26;-5.60;99.90
61912;DHT22;49973;52.084;5.412;2024-01-11T06:08:56;-5.60;99.90
61912;DHT22;49973;52.084;5.412;2024-01-11T06:11:24;-5.60;99.90
61912;DHT22;49973;52.084;5.412;2024-01-11T06:13:53;-5.60;99.90
61912;DHT22;49973;52.084;5.412;2024-01-11T06:16:22;-5.60;99.90
61912;DHT22;49973;52.084;5.412;2024-01-11T06:18:50;-5.60;99.90
61912;DHT22;49973;52.084;5.412;2024-01-11T06:21:19;-5.60;99.90
61912;DHT22;49973;52.084;5.412;2024-01-11T06:23:48;-5.60;99.90
61912;DHT22;49973;52.084;5.412;2024-01-11T06:26:18;-5.60;99.90
61912;DHT22;49973;52.084;5.412;2024-01-11T06:28:47;-5.60;99.90
61912;DHT22;49973;52.084;5.412;2024-01-11T06:31:16;-5.60;99.90
61912;DHT22;49973;52.084;5.412;2024-01-11T06:33:45;-5.60;99.90
61912;DHT22;49973;52.084;5.412;2024-01-11T06:36:17;-5.60;99.90
61912;DHT22;49973;52.084;5.412;2024-01-11T06:38:46;-5.60;99.90
61912;DHT22;49973;52.084;5.412;2024-01-11T06:41:15;-5.60;99.90
61912;DHT22;49973;52.084;5.412;2024-01-11T06:43:45;-5.60;99.90
61912;DHT22;49973;52.084;5.412;2024-01-11T06:46:19;-5.60;99.90
61912;DHT22;49973;52.084;5.412;2024-01-11T06:48:48;-5.60;99.90
61912;DHT22;49973;52.084;5.412;2024-01-11T06:51:20;-5.50;99.90
61912;DHT22;49973;52.084;5.412;2024-01-11T06:53:49;-5.50;99.90
61912;DHT22;49973;52.084;5.412;2024-01-11T06:56:19;-5.50;99.90
61912;DHT22;49973;52.084;5.412;2024-01-11T06:58:50;-5.50;99.90
61912;DHT22;49973;52.084;5.412;2024-01-11T07:01:18;-5.50;99.90
61912;DHT22;49973;52.084;5.412;2024-01-11T07:03:48;-5.50;99.90
61912;DHT22;49973;52.084;5.412;2024-01-11T07:06:17;-5.50;99.90
61912;DHT22;49973;52.084;5.412;2024-01-11T07:08:46;-5.50;99.90
61912;DHT22;49973;52.084;5.412;2024-01-11T07:11:14;-5.50;99.90
61912;DHT22;49973;52.084;5.412;2024-01-11T07:13:43;-5.50;99.90
61912;DHT22;49973;52.084;5.412;2024-01-11T07:16:13;-5.50;99.90
61912;DHT22;49973;52.084;5.412;2024-01-11T07:18:42;-5.50;99.90
61912;DHT22;49973;52.084;5.412;2024-01-11T07:21:11;-5.40;99.90
61912;DHT22;49973;52.084;5.412;2024-01-11T07:23:40;-5.40;99.90
61912;DHT22;49973;52.084;5.412;2024-01-11T07:26:09;-5.40;99.90
61912;DHT22;49973;52.084;5.412;2024-01-11T07:28:38;-5.40;99.90
61912;DHT22;49973;52.084;5.412;2024-01-11T07:31:06;-5.40;99.90
61912;DHT22;49973;52.084;5.412;2024-01-11T07:33:36;-5.40;99.90
61912;DHT22;49973;52.084;5.412;2024-01-11T07:36:06;-5.40;99.90
61912;DHT22;49973;52.084;5.412;2024-01-11T07:38:35;-5.40;99.90
61912;DHT22;49973;52.084;5.412;2024-01-11T07:41:03;-5.30;99.90
61912;DHT22;49973;52.084;5.412;2024-01-11T07:43:32;-5.30;99.90
61912;DHT22;49973;52.084;5.412;2024-01-11T07:46:19;-5.30;99.90
61912;DHT22;49973;52.084;5.412;2024-01-11T07:49:03;-5.30;99.90
61912;DHT22;49973;52.084;5.412;2024-01-11T07:51:33;-5.30;99.90
61912;DHT22;49973;52.084;5.412;2024-01-11T07:54:03;-5.30;99.90
61912;DHT22;49973;52.084;5.412;2024-01-11T07:56:32;-5.30;99.90
61912;DHT22;49973;52.084;5.412;2024-01-11T07:59:02;-5.30;99.90
61912;DHT22;49973;52.084;5.412;2024-01-11T08:01:31;-5.30;99.90
61912;DHT22;49973;52.084;5.412;2024-01-11T08:04:04;-5.20;99.90
61912;DHT22;49973;52.084;5.412;2024-01-11T08:06:33;-5.20;99.90
61912;DHT22;49973;52.084;5.412;2024-01-11T08:09:02;-5.20;99.90
61912;DHT22;49973;52.084;5.412;2024-01-11T08:11:32;-5.20;99.90
61912;DHT22;49973;52.084;5.412;2024-01-11T08:14:04;-5.10;99.90
61912;DHT22;49973;52.084;5.412;2024-01-11T08:16:34;-5.10;99.90
61912;DHT22;49973;52.084;5.412;2024-01-11T08:19:04;-5.10;99.90
61912;DHT22;49973;52.084;5.412;2024-01-11T08:21:33;-5.00;99.90
61912;DHT22;49973;52.084;5.412;2024-01-11T08:24:01;-5.00;99.90
61912;DHT22;49973;52.084;5.412;2024-01-11T08:26:31;-4.90;99.90
61912;DHT22;49973;52.084;5.412;2024-01-11T08:29:00;-4.90;99.90
61912;DHT22;49973;52.084;5.412;2024-01-11T08:31:29;-4.80;99.90
61912;DHT22;49973;52.084;5.412;2024-01-11T08:33:58;-4.80;99.90
61912;DHT22;49973;52.084;5.412;2024-01-11T08:36:32;-4.70;99.90
61912;DHT22;49973;52.084;5.412;2024-01-11T08:39:02;-4.70;99.90
61912;DHT22;49973;52.084;5.412;2024-01-11T08:41:32;-4.60;99.90
61912;DHT22;49973;52.084;5.412;2024-01-11T08:44:02;-4.60;99.90
61912;DHT22;49973;52.084;5.412;2024-01-11T08:46:33;-4.50;99.90
61912;DHT22;49973;52.084;5.412;2024-01-11T08:49:02;-4.50;99.90
61912;DHT22;49973;52.084;5.412;2024-01-11T08:51:33;-4.30;99.90
61912;DHT22;49973;52.084;5.412;2024-01-11T08:54:01;-4.40;99.90
61912;DHT22;49973;52.084;5.412;2024-01-11T08:56:31;-4.30;99.90
61912;DHT22;49973;52.084;5.412;2024-01-11T08:59:00;-4.30;99.90
61912;DHT22;49973;52.084;5.412;2024-01-11T09:01:29;-4.20;99.90
61912;DHT22;49973;52.084;5.412;2024-01-11T09:03:59;-4.10;99.90
61912;DHT22;49973;52.084;5.412;2024-01-11T09:06:27;-4.00;99.90
61912;DHT22;49973;52.084;5.412;2024-01-11T09:08:58;-4.00;99.90
61912;DHT22;49973;52.084;5.412;2024-01-11T09:11:26;-3.90;99.90
61912;DHT22;49973;52.084;5.412;2024-01-11T09:13:55;-3.80;99.90
61912;DHT22;49973;52.084;5.412;2024-01-11T09:16:24;-3.80;99.90
61912;DHT22;49973;52.084;5.412;2024-01-11T09:18:53;-3.70;99.90
61912;DHT22;49973;52.084;5.412;2024-01-11T09:21:22;-3.60;99.90
61912;DHT22;49973;52.084;5.412;2024-01-11T09:23:50;-3.50;99.90
61912;DHT22;49973;52.084;5.412;2024-01-11T09:26:20;-3.40;99.90
61912;DHT22;49973;52.084;5.412;2024-01-11T09:28:49;-3.40;99.90
61912;DHT22;49973;52.084;5.412;2024-01-11T09:31:18;-3.30;99.90
61912;DHT22;49973;52.084;5.412;2024-01-11T09:33:47;-3.20;99.90
61912;DHT22;49973;52.084;5.412;2024-01-11T09:36:17;-3.20;99.90
61912;DHT22;49973;52.084;5.412;2024-01-11T09:38:46;-3.10;99.90
61912;DHT22;49973;52.084;5.412;2024-01-11T09:41:16;-2.90;99.90
61912;DHT22;49973;52.084;5.412;2024-01-11T09:43:48;-2.70;99.90
61912;DHT22;49973;52.084;5.412;2024-01-11T09:46:19;-2.50;99.90
61912;DHT22;49973;52.084;5.412;2024-01-11T09:48:49;-2.30;99.90
61912;DHT22;49973;52.084;5.412;2024-01-11T09:51:19;-2.20;99.90
61912;DHT22;49973;52.084;5.412;2024-01-11T09:53:50;-2.00;99.90
61912;DHT22;49973;52.084;5.412;2024-01-11T09:56:19;-1.90;99.90
61912;DHT22;49973;52.084;5.412;2024-01-11T09:58:51;-1.80;99.90
61912;DHT22;49973;52.084;5.412;2024-01-11T10:01:20;-1.60;99.90
61912;DHT22;49973;52.084;5.412;2024-01-11T10:03:49;-1.50;99.90
61912;DHT22;49973;52.084;5.412;2024-01-11T10:06:18;-1.40;99.90
61912;DHT22;49973;52.084;5.412;2024-01-11T10:08:47;-1.30;99.90
61912;DHT22;49973;52.084;5.412;2024-01-11T10:11:16;-1.20;99.90
61912;DHT22;49973;52.084;5.412;2024-01-11T10:13:45;-1.10;99.90
61912;DHT22;49973;52.084;5.412;2024-01-11T10:16:15;-1.00;99.90
61912;DHT22;49973;52.084;5.412;2024-01-11T10:18:44;-1.00;99.90
61912;DHT22;49973;52.084;5.412;2024-01-11T10:21:13;-0.90;99.90
61912;DHT22;49973;52.084;5.412;2024-01-11T10:23:42;-0.80;99.90
61912;DHT22;49973;52.084;5.412;2024-01-11T10:26:11;-0.80;99.90
61912;DHT22;49973;52.084;5.412;2024-01-11T10:28:39;-0.70;99.90
61912;DHT22;49973;52.084;5.412;2024-01-11T10:31:11;-0.70;99.90
61912;DHT22;49973;52.084;5.412;2024-01-11T10:33:41;-0.70;99.90
61912;DHT22;49973;52.084;5.412;2024-01-11T10:36:11;-0.60;99.90
61912;DHT22;49973;52.084;5.412;2024-01-11T10:38:40;-0.60;99.90
61912;DHT22;49973;52.084;5.412;2024-01-11T10:41:11;-0.50;99.90
61912;DHT22;49973;52.084;5.412;2024-01-11T10:43:41;-0.50;99.90
61912;DHT22;49973;52.084;5.412;2024-01-11T10:46:11;-0.40;99.90
61912;DHT22;49973;52.084;5.412;2024-01-11T10:48:44;-0.40;99.90
61912;DHT22;49973;52.084;5.412;2024-01-11T10:51:17;-0.30;99.90
61912;DHT22;49973;52.084;5.412;2024-01-11T10:53:50;-0.30;99.90
61912;DHT22;49973;52.084;5.412;2024-01-11T10:56:20;-0.30;99.90
61912;DHT22;49973;52.084;5.412;2024-01-11T10:58:50;-0.20;99.90
61912;DHT22;49973;52.084;5.412;2024-01-11T11:01:21;-0.20;99.90
61912;DHT22;49973;52.084;5.412;2024-01-11T11:03:52;-0.10;99.90
61912;DHT22;49973;52.084;5.412;2024-01-11T11:06:23;-0.10;99.90
61912;DHT22;49973;52.084;5.412;2024-01-11T11:08:55;-0.10;99.90
61912;DHT22;49973;52.084;5.412;2024-01-11T11:11:25;0.00;99.90
61912;DHT22;49973;52.084;5.412;2024-01-11T11:13:57;0.00;99.90
61912;DHT22;49973;52.084;5.412;2024-01-11T11:16:27;0.10;99.90
61912;DHT22;49973;52.084;5.412;2024-01-11T11:18:57;0.10;99.90
61912;DHT22;49973;52.084;5.412;2024-01-11T11:21:26;0.20;99.90
61912;DHT22;49973;52.084;5.412;2024-01-11T11:23:55;0.20;99.90
61912;DHT22;49973;52.084;5.412;2024-01-11T11:26:26;0.20;99.90
61912;DHT22;49973;52.084;5.412;2024-01-11T11:28:55;0.30;99.90
61912;DHT22;49973;52.084;5.412;2024-01-11T11:31:37;0.40;99.90
61912;DHT22;49973;52.084;5.412;2024-01-11T11:34:07;0.40;99.90
61912;DHT22;49973;52.084;5.412;2024-01-11T11:36:36;0.50;99.90
61912;DHT22;49973;52.084;5.412;2024-01-11T11:39:04;0.60;99.90
61912;DHT22;49973;52.084;5.412;2024-01-11T11:41:35;0.60;99.90
61912;DHT22;49973;52.084;5.412;2024-01-11T11:44:06;0.70;99.90
61912;DHT22;49973;52.084;5.412;2024-01-11T11:46:35;0.70;99.90
61912;DHT22;49973;52.084;5.412;2024-01-11T11:49:04;0.80;99.90
61912;DHT22;49973;52.084;5.412;2024-01-11T11:51:35;0.80;99.90
61912;DHT22;49973;52.084;5.412;2024-01-11T11:54:04;0.90;99.90
61912;DHT22;49973;52.084;5.412;2024-01-11T11:56:34;0.90;99.90
61912;DHT22;49973;52.084;5.412;2024-01-11T11:59:03;1.00;99.90
61912;DHT22;49973;52.084;5.412;2024-01-11T12:01:32;1.00;99.90
61912;DHT22;49973;52.084;5.412;2024-01-11T12:04:01;1.10;99.90
61912;DHT22;49973;52.084;5.412;2024-01-11T12:06:30;1.10;99.90
61912;DHT22;49973;52.084;5.412;2024-01-11T12:09:00;1.20;99.90
61912;DHT22;49973;52.084;5.412;2024-01-11T12:11:30;1.20;99.90
61912;DHT22;49973;52.084;5.412;2024-01-11T12:14:00;1.30;99.90
61912;DHT22;49973;52.084;5.412;2024-01-11T12:16:29;1.50;99.90
61912;DHT22;49973;52.084;5.412;2024-01-11T12:18:58;1.50;99.90
61912;DHT22;49973;52.084;5.412;2024-01-11T12:21:26;1.50;99.90
61912;DHT22;49973;52.084;5.412;2024-01-11T12:23:56;1.60;99.90
61912;DHT22;49973;52.084;5.412;2024-01-11T12:26:26;1.60;99.90
61912;DHT22;49973;52.084;5.412;2024-01-11T12:28:55;1.70;99.90
61912;DHT22;49973;52.084;5.412;2024-01-11T12:31:24;1.90;99.90
61912;DHT22;49973;52.084;5.412;2024-01-11T12:33:52;1.90;99.90
61912;DHT22;49973;52.084;5.412;2024-01-11T12:36:22;2.10;99.90
61912;DHT22;49973;52.084;5.412;2024-01-11T12:38:52;2.10;99.90
61912;DHT22;49973;52.084;5.412;2024-01-11T12:41:21;2.10;99.90
61912;DHT22;49973;52.084;5.412;2024-01-11T12:43:53;2.20;99.90
61912;DHT22;49973;52.084;5.412;2024-01-11T12:46:22;2.20;99.90
61912;DHT22;49973;52.084;5.412;2024-01-11T12:48:51;2.20;99.90
61912;DHT22;49973;52.084;5.412;2024-01-11T12:51:20;2.20;99.90
61912;DHT22;49973;52.084;5.412;2024-01-11T12:53:51;2.20;99.90
61912;DHT22;49973;52.084;5.412;2024-01-11T12:56:21;2.30;99.90
61912;DHT22;49973;52.084;5.412;2024-01-11T12:58:52;2.30;99.90
61912;DHT22;49973;52.084;5.412;2024-01-11T13:01:33;2.30;99.90
61912;DHT22;49973;52.084;5.412;2024-01-11T13:04:01;2.40;99.90
61912;DHT22;49973;52.084;5.412;2024-01-11T13:06:31;2.40;99.90
61912;DHT22;49973;52.084;5.412;2024-01-11T13:09:01;2.40;99.90
61912;DHT22;49973;52.084;5.412;2024-01-11T13:11:31;2.40;99.90
61912;DHT22;49973;52.084;5.412;2024-01-11T13:14:01;2.50;99.90
61912;DHT22;49973;52.084;5.412;2024-01-11T13:16:34;2.50;99.90
61912;DHT22;49973;52.084;5.412;2024-01-11T13:19:03;2.40;99.90
61912;DHT22;49973;52.084;5.412;2024-01-11T13:21:50;2.40;99.90
61912;DHT22;49973;52.084;5.412;2024-01-11T13:24:19;2.50;99.90
61912;DHT22;49973;52.084;5.412;2024-01-11T13:26:48;2.40;99.90
61912;DHT22;49973;52.084;5.412;2024-01-11T13:29:18;2.30;99.90
61912;DHT22;49973;52.084;5.412;2024-01-11T13:31:47;2.30;99.90
61912;DHT22;49973;52.084;5.412;2024-01-11T13:34:15;2.30;99.90
61912;DHT22;49973;52.084;5.412;2024-01-11T13:36:44;2.30;99.90
61912;DHT22;49973;52.084;5.412;2024-01-11T13:39:13;2.30;99.90
61912;DHT22;49973;52.084;5.412;2024-01-11T13:41:41;2.40;99.90
61912;DHT22;49973;52.084;5.412;2024-01-11T13:44:11;2.40;99.90
61912;DHT22;49973;52.084;5.412;2024-01-11T13:46:41;2.40;99.90
61912;DHT22;49973;52.084;5.412;2024-01-11T13:49:11;2.40;99.90
61912;DHT22;49973;52.084;5.412;2024-01-11T13:51:40;2.40;99.90
61912;DHT22;49973;52.084;5.412;2024-01-11T13:54:23;2.50;99.90
61912;DHT22;49973;52.084;5.412;2024-01-11T13:56:51;2.50;99.90
61912;DHT22;49973;52.084;5.412;2024-01-11T13:59:20;2.60;99.90
61912;DHT22;49973;52.084;5.412;2024-01-11T14:01:50;2.60;99.90
61912;DHT22;49973;52.084;5.412;2024-01-11T14:04:19;2.60;99.90
61912;DHT22;49973;52.084;5.412;2024-01-11T14:06:50;2.60;99.90
61912;DHT22;49973;52.084;5.412;2024-01-11T14:09:20;2.60;99.90
61912;DHT22;49973;52.084;5.412;2024-01-11T14:11:50;2.60;99.90
61912;DHT22;49973;52.084;5.412;2024-01-11T14:14:19;2.50;99.90
61912;DHT22;49973;52.084;5.412;2024-01-11T14:16:49;2.50;99.90
61912;DHT22;49973;52.084;5.412;2024-01-11T14:19:18;2.50;99.90
61912;DHT22;49973;52.084;5.412;2024-01-11T14:21:48;2.50;99.90
61912;DHT22;49973;52.084;5.412;2024-01-11T14:24:18;2.50;99.90
61912;DHT22;49973;52.084;5.412;2024-01-11T14:26:56;2.50;99.90
61912;DHT22;49973;52.084;5.412;2024-01-11T14:29:24;2.40;99.90
61912;DHT22;49973;52.084;5.412;2024-01-11T14:31:54;2.30;99.90
61912;DHT22;49973;52.084;5.412;2024-01-11T14:34:24;2.30;99.90
61912;DHT22;49973;52.084;5.412;2024-01-11T14:36:58;2.30;99.90
61912;DHT22;49973;52.084;5.412;2024-01-11T14:39:27;2.20;99.90
61912;DHT22;49973;52.084;5.412;2024-01-11T14:41:55;2.20;99.90
61912;DHT22;49973;52.084;5.412;2024-01-11T14:44:24;2.30;99.90
61912;DHT22;49973;52.084;5.412;2024-01-11T14:46:54;2.20;99.90
61912;DHT22;49973;52.084;5.412;2024-01-11T14:49:24;2.20;99.90
61912;DHT22;49973;52.084;5.412;2024-01-11T14:51:54;2.20;99.90
61912;DHT22;49973;52.084;5.412;2024-01-11T14:54:22;2.20;99.90
61912;DHT22;49973;52.084;5.412;2024-01-11T14:56:51;2.10;99.90
61912;DHT22;49973;52.084;5.412;2024-01-11T14:59:20;2.10;99.90
61912;DHT22;49973;52.084;5.412;2024-01-11T15:01:49;2.10;99.90
61912;DHT22;49973;52.084;5.412;2024-01-11T15:04:19;2.10;99.90
61912;DHT22;49973;52.084;5.412;2024-01-11T15:06:49;2.10;99.90
61912;DHT22;49973;52.084;5.412;2024-01-11T15:09:18;2.10;99.90
61912;DHT22;49973;52.084;5.412;2024-01-11T15:11:46;2.10;99.90
61912;DHT22;49973;52.084;5.412;2024-01-11T15:14:15;2.10;99.90
61912;DHT22;49973;52.084;5.412;2024-01-11T15:16:44;2.10;99.90
61912;DHT22;49973;52.084;5.412;2024-01-11T15:19:14;2.10;99.90
61912;DHT22;49973;52.084;5.412;2024-01-11T15:21:44;2.00;99.90
61912;DHT22;49973;52.084;5.412;2024-01-11T15:24:17;2.00;99.90
61912;DHT22;49973;52.084;5.412;2024-01-11T15:26:47;2.00;99.90
61912;DHT22;49973;52.084;5.412;2024-01-11T15:29:17;2.00;99.90
61912;DHT22;49973;52.084;5.412;2024-01-11T15:31:46;2.00;99.90
61912;DHT22;49973;52.084;5.412;2024-01-11T15:34:16;1.90;99.90
61912;DHT22;49973;52.084;5.412;2024-01-11T15:36:47;2.00;99.90
61912;DHT22;49973;52.084;5.412;2024-01-11T15:39:16;1.90;99.90
61912;DHT22;49973;52.084;5.412;2024-01-11T15:41:55;1.90;99.90
61912;DHT22;49973;52.084;5.412;2024-01-11T15:44:25;1.90;99.90
61912;DHT22;49973;52.084;5.412;2024-01-11T15:46:56;1.90;99.90
61912;DHT22;49973;52.084;5.412;2024-01-11T15:49:25;1.80;99.90